createdAt,value
2022-09-12T03:59:19.339Z,19.67
2022-09-12T04:00:20.056Z,19.61
2022-09-12T04:01:19.377Z,19.57
2022-09-12T04:02:19.363Z,19.57
2022-09-12T04:03:19.310Z,19.64
2022-09-12T04:04:19.305Z,19.56
2022-09-12T04:05:19.300Z,19.60
2022-09-12T04:06:19.309Z,19.65
2022-09-12T04:07:19.313Z,19.71
2022-09-12T04:08:18.820Z,19.68
2022-09-12T04:09:19.303Z,19.64
2022-09-12T04:10:19.316Z,19.65
2022-09-12T04:11:19.303Z,19.68
2022-09-12T04:12:19.306Z,19.70
2022-09-12T04:13:19.305Z,19.79
2022-09-12T04:14:17.610Z,19.68
2022-09-12T04:15:19.339Z,19.80
2022-09-12T04:16:19.353Z,19.74
2022-09-12T04:17:19.319Z,19.79
2022-09-12T04:18:19.307Z,19.86
2022-09-12T04:19:19.319Z,19.80
2022-09-12T04:20:19.333Z,19.87
2022-09-12T04:21:17.586Z,19.80
2022-09-12T04:22:19.322Z,19.87
2022-09-12T04:23:19.318Z,19.85
2022-09-12T04:24:19.309Z,19.83
2022-09-12T04:25:19.322Z,19.80
2022-09-12T04:26:19.328Z,19.89
2022-09-12T04:27:19.342Z,19.90
2022-09-12T04:28:19.314Z,19.86
2022-09-12T04:29:19.316Z,19.92
2022-09-12T04:30:19.316Z,19.92
2022-09-12T04:31:19.369Z,19.98
2022-09-12T04:32:19.333Z,19.93
2022-09-12T04:33:19.321Z,20.02
2022-09-12T04:34:19.319Z,20.00
2022-09-12T04:35:19.319Z,19.97
2022-09-12T04:36:19.339Z,20.01
2022-09-12T04:37:17.517Z,20.02
2022-09-12T04:38:17.518Z,20.05
2022-09-12T04:39:19.344Z,20.11
2022-09-12T04:40:17.563Z,20.05
2022-09-12T04:41:17.508Z,20.07
2022-09-12T04:42:19.333Z,20.10
2022-09-12T04:43:19.346Z,20.08
2022-09-12T04:44:17.504Z,20.12
2022-09-12T04:45:19.327Z,20.11
2022-09-12T04:46:19.338Z,20.08
2022-09-12T04:47:19.352Z,20.16
2022-09-12T04:48:19.344Z,20.16
2022-09-12T04:49:19.389Z,20.10
2022-09-12T04:50:19.346Z,20.08
2022-09-12T04:51:19.344Z,20.11
2022-09-12T04:52:19.345Z,20.20
2022-09-12T04:53:19.335Z,20.12
2022-09-12T04:54:19.346Z,20.23
2022-09-12T04:55:19.343Z,20.16
2022-09-12T04:56:19.335Z,20.19
2022-09-12T04:57:19.355Z,20.18
2022-09-12T04:58:19.342Z,20.19
2022-09-12T04:59:19.353Z,20.19
2022-09-12T05:00:19.339Z,20.22
2022-09-12T05:01:19.465Z,20.32
2022-09-12T05:02:19.407Z,20.29
2022-09-12T05:03:19.351Z,20.29
2022-09-12T05:04:19.366Z,20.26
2022-09-12T05:05:18.856Z,20.20
2022-09-12T05:06:17.424Z,20.35
2022-09-12T05:07:17.404Z,20.35
2022-09-12T05:08:17.410Z,20.30
2022-09-12T05:09:17.401Z,20.23
2022-09-12T05:10:19.363Z,20.25
2022-09-12T05:11:19.591Z,20.26
2022-09-12T05:12:17.390Z,20.25
2022-09-12T05:13:19.347Z,20.22
2022-09-12T05:14:17.382Z,20.26
2022-09-12T05:15:19.377Z,20.20
2022-09-12T05:16:17.414Z,20.23
2022-09-12T05:17:19.356Z,20.35
2022-09-12T05:18:17.369Z,20.35
2022-09-12T05:19:18.894Z,20.32
2022-09-12T05:20:17.364Z,20.30
2022-09-12T05:21:18.856Z,20.38
2022-09-12T05:22:18.858Z,20.38
2022-09-12T05:23:18.857Z,20.42
2022-09-12T05:24:18.871Z,20.37
2022-09-12T05:25:18.949Z,20.35
2022-09-12T05:26:18.877Z,20.42
2022-09-12T05:27:17.334Z,20.46
2022-09-12T05:28:17.328Z,20.38
2022-09-12T05:29:17.333Z,20.37
2022-09-12T05:30:18.876Z,20.38
2022-09-12T05:31:18.892Z,20.34
2022-09-12T05:32:17.316Z,20.35
2022-09-12T05:33:18.544Z,20.46
2022-09-12T05:34:18.881Z,20.42
2022-09-12T05:35:18.320Z,20.40
2022-09-12T05:36:17.380Z,20.49
2022-09-12T05:37:17.309Z,20.42
2022-09-12T05:38:17.294Z,20.46
2022-09-12T05:39:18.885Z,20.57
2022-09-12T05:40:17.329Z,20.51
2022-09-12T05:41:21.956Z,20.60
2022-09-12T05:42:17.290Z,20.46
2022-09-12T05:43:18.871Z,20.54
2022-09-12T05:44:17.292Z,20.57
2022-09-12T05:45:18.873Z,20.54
2022-09-12T05:46:18.891Z,20.51
2022-09-12T05:47:18.268Z,20.54
2022-09-12T05:48:17.264Z,20.60
2022-09-12T05:49:17.255Z,20.56
2022-09-12T05:50:17.254Z,20.60
2022-09-12T05:51:17.285Z,20.60
2022-09-12T05:52:18.943Z,20.64
2022-09-12T05:53:17.241Z,20.61
2022-09-12T05:54:18.900Z,20.67
2022-09-12T05:55:17.235Z,20.72
2022-09-12T05:56:17.244Z,20.71
2022-09-12T05:57:18.911Z,20.75
2022-09-12T05:58:17.244Z,20.79
2022-09-12T05:59:17.238Z,20.78
2022-09-12T06:00:17.251Z,20.86
2022-09-12T06:01:17.264Z,20.83
2022-09-12T06:02:20.062Z,20.83
2022-09-12T06:03:17.208Z,20.81
2022-09-12T06:04:17.296Z,20.85
2022-09-12T06:05:19.158Z,20.91
2022-09-12T06:06:18.968Z,20.86
2022-09-12T06:07:18.938Z,20.88
2022-09-12T06:08:19.022Z,20.98
2022-09-12T06:09:18.921Z,20.91
2022-09-12T06:10:18.929Z,20.96
2022-09-12T06:11:18.907Z,21.00
2022-09-12T06:12:18.932Z,21.04
2022-09-12T06:13:19.204Z,21.12
2022-09-12T06:14:18.905Z,21.06
2022-09-12T06:15:18.950Z,21.03
2022-09-12T06:16:19.013Z,21.11
2022-09-12T06:17:18.938Z,21.15
2022-09-12T06:18:20.856Z,21.21
2022-09-12T06:19:19.026Z,21.21
2022-09-12T06:20:18.922Z,21.21
2022-09-12T06:21:18.941Z,21.22
2022-09-12T06:22:18.941Z,21.31
2022-09-12T06:23:18.998Z,21.27
2022-09-12T06:24:18.944Z,21.34
2022-09-12T06:25:18.929Z,21.31
2022-09-12T06:26:18.916Z,21.34
2022-09-12T06:27:18.932Z,21.43
2022-09-12T06:28:18.935Z,21.40
2022-09-12T06:29:18.929Z,21.52
2022-09-12T06:30:22.290Z,21.51
2022-09-12T06:31:18.915Z,21.48
2022-09-12T06:32:18.917Z,21.52
2022-09-12T06:33:18.919Z,21.58
2022-09-12T06:34:18.946Z,21.61
2022-09-12T06:35:18.920Z,21.70
2022-09-12T06:36:18.926Z,21.67
2022-09-12T06:37:18.949Z,21.73
2022-09-12T06:38:18.430Z,21.77
2022-09-12T06:39:19.464Z,21.82
2022-09-12T06:40:17.164Z,21.78
2022-09-12T06:41:17.095Z,21.74
2022-09-12T06:42:17.099Z,21.86
2022-09-12T06:43:17.092Z,21.89
2022-09-12T06:44:18.434Z,21.94
2022-09-12T06:45:17.097Z,21.94
2022-09-12T06:46:18.246Z,22.07
2022-09-12T06:47:18.940Z,22.11
2022-09-12T06:48:18.076Z,22.11
2022-09-12T06:49:18.941Z,22.23
2022-09-12T06:50:17.083Z,22.24
2022-09-12T06:51:18.113Z,22.08
2022-09-12T06:52:18.968Z,22.24
2022-09-12T06:53:18.067Z,22.29
2022-09-12T06:54:18.962Z,22.23
2022-09-12T06:55:20.990Z,22.23
2022-09-12T06:56:18.961Z,22.38
2022-09-12T06:57:18.052Z,22.38
2022-09-12T06:58:18.053Z,22.45
2022-09-12T06:59:18.951Z,22.45
2022-09-12T07:00:18.935Z,22.44
2022-09-12T07:01:19.042Z,22.54
2022-09-12T07:02:18.097Z,22.46
2022-09-12T07:03:17.042Z,22.60
2022-09-12T07:04:17.038Z,22.63
2022-09-12T07:05:18.952Z,22.60
2022-09-12T07:06:18.898Z,22.69
2022-09-12T07:07:18.031Z,22.78
2022-09-12T07:08:18.463Z,22.79
2022-09-12T07:09:18.499Z,22.85
2022-09-12T07:10:22.202Z,22.84
2022-09-12T07:11:18.487Z,22.89
2022-09-12T07:12:18.040Z,22.94
2022-09-12T07:13:18.028Z,23.00
2022-09-12T07:14:18.460Z,23.03
2022-09-12T07:15:17.020Z,22.97
2022-09-12T07:16:19.762Z,23.09
2022-09-12T07:17:18.951Z,23.07
2022-09-12T07:18:18.958Z,23.04
2022-09-12T07:19:18.989Z,23.19
2022-09-12T07:20:18.973Z,23.09
2022-09-12T07:21:18.954Z,23.15
2022-09-12T07:22:18.958Z,23.19
2022-09-12T07:23:18.960Z,23.24
2022-09-12T07:24:19.014Z,23.29
2022-09-12T07:25:18.477Z,23.28
2022-09-12T07:26:18.958Z,23.41
2022-09-12T07:27:18.977Z,23.40
2022-09-12T07:28:20.455Z,23.40
2022-09-12T07:29:36.631Z,23.45
2022-09-12T07:30:17.026Z,23.44
2022-09-12T07:31:19.103Z,23.52
2022-09-12T07:32:18.981Z,23.52
2022-09-12T07:33:17.092Z,23.53
2022-09-12T07:34:17.015Z,23.53
2022-09-12T07:35:19.006Z,23.59
2022-09-12T07:36:17.018Z,23.67
2022-09-12T07:37:17.000Z,23.72
2022-09-12T07:38:16.992Z,23.67
2022-09-12T07:39:16.992Z,23.72
2022-09-12T07:40:18.999Z,23.75
2022-09-12T07:41:17.029Z,23.82
2022-09-12T07:42:18.519Z,23.78
2022-09-12T07:43:17.013Z,23.84
2022-09-12T07:44:16.992Z,23.99
2022-09-12T07:45:18.502Z,23.93
2022-09-12T07:46:17.037Z,23.87
2022-09-12T07:47:16.995Z,23.93
2022-09-12T07:48:18.544Z,23.99
2022-09-12T07:49:17.114Z,24.02
2022-09-12T07:50:17.060Z,24.09
2022-09-12T07:51:16.997Z,24.09
2022-09-12T07:52:18.514Z,24.12
2022-09-12T07:53:18.526Z,24.09
2022-09-12T07:54:17.073Z,24.15
2022-09-12T07:56:16.999Z,24.09
2022-09-12T07:57:18.050Z,24.22
2022-09-12T07:58:18.038Z,24.21
2022-09-12T07:59:30.248Z,24.21
2022-09-12T08:00:18.494Z,24.29
2022-09-12T08:01:17.041Z,24.24
2022-09-12T08:02:18.572Z,24.24
2022-09-12T08:03:18.506Z,24.22
2022-09-12T08:04:18.494Z,24.19
2022-09-12T08:05:18.511Z,24.18
2022-09-12T08:06:16.969Z,24.26
2022-09-12T08:07:18.546Z,24.27
2022-09-12T08:08:16.971Z,24.22
2022-09-12T08:09:18.010Z,24.30
2022-09-12T08:10:16.970Z,24.24
2022-09-12T08:11:16.963Z,24.27
2022-09-12T08:12:16.968Z,24.26
2022-09-12T08:13:18.019Z,24.27
2022-09-12T08:14:18.022Z,24.29
2022-09-12T08:15:19.038Z,24.27
2022-09-12T08:16:18.039Z,24.27
2022-09-12T08:17:16.967Z,24.32
2022-09-12T08:18:16.971Z,24.30
2022-09-12T08:19:16.982Z,24.33
2022-09-12T08:20:18.024Z,24.32
2022-09-12T08:21:17.980Z,24.37
2022-09-12T08:22:18.028Z,24.32
2022-09-12T08:23:17.959Z,24.40
2022-09-12T08:24:18.511Z,24.32
2022-09-12T08:25:17.972Z,24.34
2022-09-12T08:26:18.564Z,24.32
2022-09-12T08:27:16.956Z,24.39
2022-09-12T08:28:17.955Z,24.42
2022-09-12T08:29:18.549Z,24.36
2022-09-12T08:30:18.530Z,24.44
2022-09-12T08:31:18.540Z,24.44
2022-09-12T08:32:18.534Z,24.51
2022-09-12T08:33:18.528Z,24.49
2022-09-12T08:34:18.613Z,24.56
2022-09-12T08:35:18.526Z,24.48
2022-09-12T08:36:18.540Z,24.45
2022-09-12T08:37:17.963Z,24.54
2022-09-12T08:38:18.037Z,24.51
2022-09-12T08:39:16.951Z,24.48
2022-09-12T08:40:17.021Z,24.46
2022-09-12T08:41:16.955Z,24.61
2022-09-12T08:42:18.546Z,24.58
2022-09-12T08:43:16.945Z,24.64
2022-09-12T08:44:16.950Z,24.54
2022-09-12T08:45:16.951Z,24.61
2022-09-12T08:46:17.016Z,24.58
2022-09-12T08:47:18.068Z,24.59
2022-09-12T08:48:16.953Z,24.61
2022-09-12T08:49:16.950Z,24.66
2022-09-12T08:50:17.950Z,24.63
2022-09-12T08:51:17.962Z,24.58
2022-09-12T08:52:18.552Z,24.70
2022-09-12T08:53:18.540Z,24.63
2022-09-12T08:54:18.545Z,24.71
2022-09-12T08:55:18.544Z,24.77
2022-09-12T08:56:18.554Z,24.80
2022-09-12T08:57:18.539Z,24.66
2022-09-12T08:58:18.547Z,24.64
2022-09-12T08:59:17.945Z,24.67
2022-09-12T09:00:18.571Z,24.77
2022-09-12T09:01:18.601Z,24.78
2022-09-12T09:02:18.616Z,24.70
2022-09-12T09:03:18.563Z,24.82
2022-09-12T09:04:18.558Z,24.83
2022-09-12T09:05:18.553Z,24.85
2022-09-12T09:06:18.563Z,24.83
2022-09-12T09:07:18.575Z,24.90
2022-09-12T09:08:18.562Z,24.90
2022-09-12T09:09:18.570Z,24.92
2022-09-12T09:10:18.591Z,24.90
2022-09-12T09:11:18.557Z,24.92
2022-09-12T09:12:18.576Z,24.93
2022-09-12T09:13:18.559Z,24.94
2022-09-12T09:14:18.561Z,25.00
2022-09-12T09:15:18.580Z,25.00
2022-09-12T09:16:18.616Z,25.07
2022-09-12T09:17:18.579Z,25.02
2022-09-12T09:18:18.562Z,25.02
2022-09-12T09:19:17.942Z,25.04
2022-09-12T09:20:18.086Z,25.05
2022-09-12T09:21:16.935Z,25.08
2022-09-12T09:22:18.580Z,25.01
2022-09-12T09:23:18.591Z,25.02
2022-09-12T09:24:18.580Z,25.12
2022-09-12T09:25:20.862Z,25.04
2022-09-12T09:26:18.110Z,25.05
2022-09-12T09:27:39.172Z,25.15
2022-09-12T09:28:16.956Z,25.07
2022-09-12T09:29:16.952Z,25.15
2022-09-12T09:30:19.748Z,25.20
2022-09-12T09:31:18.724Z,25.17
2022-09-12T09:32:18.900Z,25.12
2022-09-12T09:33:17.005Z,25.12
2022-09-12T09:34:16.941Z,25.23
2022-09-12T09:35:17.127Z,25.22
2022-09-12T09:36:18.933Z,25.15
2022-09-12T09:37:16.989Z,25.17
2022-09-12T09:38:18.632Z,25.15
2022-09-12T09:39:17.076Z,25.27
2022-09-12T09:40:17.029Z,25.24
2022-09-12T09:41:16.949Z,25.23
2022-09-12T09:42:16.945Z,25.26
2022-09-12T09:43:18.607Z,25.30
2022-09-12T09:44:18.640Z,25.27
2022-09-12T09:45:16.943Z,25.32
2022-09-12T09:46:17.573Z,25.29
2022-09-12T09:47:41.158Z,25.30
2022-09-12T09:48:18.660Z,25.33
2022-09-12T09:49:16.949Z,25.30
2022-09-12T09:50:18.182Z,25.32
2022-09-12T09:51:16.965Z,25.34
2022-09-12T09:52:16.931Z,25.37
2022-09-12T09:53:18.611Z,25.29
2022-09-12T09:54:16.944Z,25.33
2022-09-12T09:55:18.609Z,25.34
2022-09-12T09:56:19.235Z,25.33
2022-09-12T09:57:16.939Z,25.32
2022-09-12T09:58:18.615Z,25.32
2022-09-12T09:59:16.937Z,25.38
2022-09-12T10:00:18.637Z,25.39
2022-09-12T10:01:16.991Z,25.38
2022-09-12T10:02:19.570Z,25.38
2022-09-12T10:13:28.520Z,25.41
2022-09-12T10:14:26.934Z,25.45
2022-09-12T10:15:26.927Z,25.56
2022-09-12T10:16:28.495Z,25.57
2022-09-12T10:17:28.672Z,25.54
2022-09-12T10:18:27.941Z,25.57
2022-09-12T10:19:26.918Z,25.57
2022-09-12T10:20:28.503Z,25.59
2022-09-12T10:21:28.486Z,25.69
2022-09-12T10:22:28.484Z,25.69
2022-09-12T10:23:28.510Z,25.71
2022-09-12T10:24:28.504Z,25.75
2022-09-12T10:25:26.930Z,25.75
2022-09-12T10:26:28.515Z,25.79
2022-09-12T10:27:26.908Z,25.79
2022-09-12T10:28:28.012Z,25.91
2022-09-12T10:29:28.603Z,25.86
2022-09-12T10:30:28.136Z,25.89
2022-09-12T10:31:28.533Z,25.93
2022-09-12T10:32:30.710Z,25.89
2022-09-12T10:33:28.113Z,25.93
2022-09-12T10:34:28.154Z,25.91
2022-09-12T10:35:28.491Z,26.00
2022-09-12T10:36:28.502Z,26.03
2022-09-12T10:37:28.749Z,26.03
2022-09-12T10:38:28.497Z,26.03
2022-09-12T10:39:28.511Z,25.96
2022-09-12T10:40:28.499Z,26.01
2022-09-12T10:41:28.517Z,26.01
2022-09-12T10:42:28.501Z,26.00
2022-09-12T10:43:28.514Z,26.16
2022-09-12T10:44:28.504Z,26.09
2022-09-12T10:45:28.527Z,26.22
2022-09-12T10:46:28.585Z,26.24
2022-09-12T10:47:28.518Z,26.32
2022-09-12T10:48:26.920Z,26.35
2022-09-12T10:49:28.547Z,26.37
2022-09-12T10:50:26.923Z,26.45
2022-09-12T10:51:26.915Z,26.47
2022-09-12T10:52:26.922Z,26.50
2022-09-12T10:53:28.972Z,26.61
2022-09-12T10:54:28.542Z,26.57
2022-09-12T10:55:26.935Z,26.67
2022-09-12T10:57:28.036Z,26.79
2022-09-12T10:59:26.931Z,26.90
2022-09-12T11:00:28.083Z,26.87
2022-09-12T11:01:28.637Z,26.90
2022-09-12T11:02:27.955Z,27.00
2022-09-12T11:03:28.530Z,27.05
2022-09-12T11:04:28.547Z,27.01
2022-09-12T11:06:28.545Z,27.13
2022-09-12T11:07:28.530Z,27.21
2022-09-12T11:08:28.535Z,27.30
2022-09-12T11:09:28.532Z,27.31
2022-09-12T11:10:30.987Z,27.36
2022-09-12T11:11:28.590Z,27.30
2022-09-12T11:12:26.967Z,27.28
2022-09-12T11:13:28.648Z,27.43
2022-09-12T11:14:27.197Z,27.43
2022-09-12T11:15:27.027Z,27.45
2022-09-12T11:16:41.086Z,27.46
2022-09-12T11:17:34.649Z,27.59
2022-09-12T11:18:28.745Z,27.61
2022-09-12T11:19:29.378Z,27.68
2022-09-12T11:20:31.999Z,27.83
2022-09-12T11:21:28.564Z,27.93
2022-09-12T11:22:31.779Z,27.98
2022-09-12T11:23:36.110Z,28.03
2022-09-12T11:24:27.007Z,28.01
2022-09-12T11:25:26.984Z,28.03
2022-09-12T11:26:28.604Z,28.17
2022-09-12T11:27:27.099Z,28.27
2022-09-12T11:28:26.994Z,28.26
2022-09-12T11:29:28.551Z,28.35
2022-09-12T11:30:28.602Z,28.42
2022-09-12T11:31:28.549Z,28.51
2022-09-12T11:32:28.590Z,28.63
2022-09-12T11:33:28.575Z,28.68
2022-09-12T11:34:28.564Z,28.82
2022-09-12T11:35:27.010Z,28.82
2022-09-12T11:36:28.599Z,28.94
2022-09-12T11:37:27.007Z,29.11
2022-09-12T11:38:27.017Z,29.11
2022-09-12T11:39:28.579Z,29.28
2022-09-12T11:40:27.065Z,29.40
2022-09-12T11:41:27.022Z,29.51
2022-09-12T11:42:28.579Z,29.58
2022-09-12T11:43:27.028Z,29.67
2022-09-12T11:44:27.165Z,29.66
2022-09-12T11:45:27.046Z,29.77
2022-09-12T11:46:28.619Z,29.92
2022-09-12T11:47:27.046Z,30.07
2022-09-12T11:48:27.085Z,30.09
2022-09-12T11:49:30.486Z,30.16
2022-09-12T11:51:27.067Z,30.39
2022-09-12T11:52:27.066Z,30.52
2022-09-12T11:53:28.604Z,30.51
2022-09-12T11:54:28.584Z,30.59
2022-09-12T11:55:28.599Z,30.51
2022-09-12T11:56:28.581Z,30.62
2022-09-12T11:57:28.580Z,30.71
2022-09-12T11:58:29.099Z,30.79
2022-09-12T11:59:28.598Z,30.86
2022-09-12T12:00:29.087Z,30.94
2022-09-12T12:01:29.091Z,31.07
2022-09-12T12:02:29.166Z,31.13
2022-09-12T12:03:29.127Z,31.25
2022-09-12T12:04:29.126Z,31.31
2022-09-12T12:05:29.111Z,31.41
2022-09-12T12:06:29.091Z,31.58
2022-09-12T12:07:29.109Z,31.63
2022-09-12T12:08:29.104Z,31.75
2022-09-12T12:09:29.156Z,31.88
2022-09-12T12:10:29.118Z,32.01
2022-09-12T12:11:29.097Z,32.09
2022-09-12T12:12:29.179Z,32.23
2022-09-12T12:13:29.107Z,32.34
2022-09-12T12:14:29.119Z,32.46
2022-09-12T12:15:30.207Z,32.54
2022-09-12T12:16:29.120Z,32.68
2022-09-12T12:17:29.127Z,32.75
2022-09-12T12:18:29.110Z,32.87
2022-09-12T12:19:28.620Z,33.01
2022-09-12T12:20:27.233Z,33.06
2022-09-12T12:21:27.216Z,33.13
2022-09-12T12:22:28.626Z,33.28
2022-09-12T12:23:27.226Z,33.44
2022-09-12T12:24:27.238Z,33.58
2022-09-12T12:25:29.856Z,33.62
2022-09-12T12:26:28.246Z,33.73
2022-09-12T12:27:29.133Z,33.84
2022-09-12T12:28:27.255Z,33.97
2022-09-12T12:29:27.262Z,34.11
2022-09-12T12:30:29.121Z,34.15
2022-09-12T12:31:27.316Z,34.33
2022-09-12T12:32:29.136Z,34.34
2022-09-12T12:33:28.289Z,34.56
2022-09-12T12:34:28.299Z,34.67
2022-09-12T12:35:27.301Z,34.77
2022-09-12T12:36:29.155Z,34.75
2022-09-12T12:37:29.146Z,34.91
2022-09-12T12:38:28.325Z,34.97
2022-09-12T12:39:29.162Z,35.05
2022-09-12T12:40:28.647Z,35.21
2022-09-12T12:41:29.136Z,35.27
2022-09-12T12:42:29.139Z,35.40
2022-09-12T12:43:29.142Z,35.46
2022-09-12T12:44:29.140Z,35.57
2022-09-12T12:45:28.697Z,35.72
2022-09-12T12:46:28.425Z,35.69
2022-09-12T12:47:27.391Z,35.86
2022-09-12T12:48:27.417Z,36.06
2022-09-12T12:49:27.407Z,35.99
2022-09-12T12:50:28.675Z,36.08
2022-09-12T12:51:27.448Z,36.17
2022-09-12T12:52:27.443Z,36.22
2022-09-12T12:53:28.674Z,36.32
2022-09-12T12:54:27.453Z,36.37
2022-09-12T12:55:29.181Z,36.46
2022-09-12T12:56:29.149Z,36.53
2022-09-12T12:57:29.163Z,36.53
2022-09-12T12:58:29.159Z,36.63
2022-09-12T12:59:29.171Z,36.68
2022-09-12T13:00:29.219Z,36.78
2022-09-12T13:01:29.198Z,36.70
2022-09-12T13:02:29.198Z,36.83
2022-09-12T13:03:29.171Z,36.84
2022-09-12T13:04:29.167Z,36.97
2022-09-12T13:05:29.189Z,36.96
2022-09-12T13:06:29.174Z,37.00
2022-09-12T13:07:28.547Z,37.05
2022-09-12T13:08:29.198Z,37.09
2022-09-12T13:09:27.589Z,37.19
2022-09-12T13:10:29.191Z,37.24
2022-09-12T13:11:29.172Z,37.24
2022-09-12T13:12:29.202Z,37.31
2022-09-12T13:13:27.612Z,37.36
2022-09-12T13:14:27.623Z,37.39
2022-09-12T13:15:29.213Z,37.41
2022-09-12T13:16:27.645Z,37.36
2022-09-12T13:17:27.643Z,37.36
2022-09-12T13:18:27.651Z,37.45
2022-09-12T13:19:28.700Z,37.48
2022-09-12T13:20:29.847Z,37.53
2022-09-12T13:21:27.681Z,37.57
2022-09-12T13:22:27.702Z,37.71
2022-09-12T13:23:27.724Z,37.69
2022-09-12T13:24:27.733Z,37.72
2022-09-12T13:25:29.207Z,37.79
2022-09-12T13:26:27.723Z,37.75
2022-09-12T13:27:27.735Z,37.76
2022-09-12T13:28:29.701Z,37.86
2022-09-12T13:29:29.713Z,37.90
2022-09-12T13:30:29.744Z,37.90
2022-09-12T13:31:29.747Z,37.91
2022-09-12T13:32:29.712Z,37.91
2022-09-12T13:33:29.704Z,37.91
2022-09-12T13:34:29.733Z,37.96
2022-09-12T13:35:29.716Z,37.98
2022-09-12T13:36:29.727Z,38.05
2022-09-12T13:37:29.708Z,38.00
2022-09-12T13:38:29.737Z,38.15
2022-09-12T13:39:29.726Z,38.18
2022-09-12T13:40:29.712Z,38.18
2022-09-12T13:41:28.882Z,38.20
2022-09-12T13:42:29.734Z,38.27
2022-09-12T13:43:29.728Z,38.12
2022-09-12T13:44:29.713Z,38.08
2022-09-12T13:45:29.784Z,38.09
2022-09-12T13:46:29.793Z,38.09
2022-09-12T13:47:29.736Z,38.12
2022-09-12T13:48:29.730Z,38.12
2022-09-12T13:49:29.742Z,38.22
2022-09-12T13:50:29.719Z,38.13
2022-09-12T13:51:29.718Z,38.21
2022-09-12T13:52:29.724Z,38.21
2022-09-12T13:53:29.730Z,38.24
2022-09-12T13:54:29.742Z,38.30
2022-09-12T13:55:28.025Z,38.30
2022-09-12T13:56:28.029Z,38.24
2022-09-12T13:57:29.756Z,38.20
2022-09-12T13:58:28.029Z,38.20
2022-09-12T13:59:28.041Z,38.15
2022-09-12T14:00:29.756Z,38.25
2022-09-12T14:01:28.135Z,38.21
2022-09-12T14:02:28.134Z,38.28
2022-09-12T14:03:28.087Z,38.27
2022-09-12T14:04:29.751Z,38.35
2022-09-12T14:05:28.097Z,38.31
2022-09-12T14:06:28.106Z,38.39
2022-09-12T14:07:28.124Z,38.35
2022-09-12T14:08:28.128Z,38.36
2022-09-12T14:09:29.817Z,38.28
2022-09-12T14:10:28.168Z,38.33
2022-09-12T14:11:29.757Z,38.25
2022-09-12T14:12:29.767Z,38.20
2022-09-12T14:13:28.175Z,38.36
2022-09-12T14:14:29.759Z,38.21
2022-09-12T14:15:29.830Z,38.28
2022-09-12T14:16:29.319Z,38.20
2022-09-12T14:17:28.215Z,38.18
2022-09-12T14:18:29.771Z,38.22
2022-09-12T14:19:29.385Z,38.18
2022-09-12T14:20:28.246Z,38.09
2022-09-12T14:21:29.262Z,38.10
2022-09-12T14:22:29.782Z,37.96
2022-09-12T14:23:28.275Z,38.10
2022-09-12T14:24:30.267Z,38.02
2022-09-12T14:25:30.283Z,38.03
2022-09-12T14:26:28.310Z,37.90
2022-09-12T14:27:30.281Z,37.94
2022-09-12T14:28:28.320Z,37.91
2022-09-12T14:29:30.281Z,37.90
2022-09-12T14:30:30.290Z,37.80
2022-09-12T14:31:30.358Z,37.87
2022-09-12T14:32:30.307Z,37.79
2022-09-12T14:33:30.280Z,37.79
2022-09-12T14:34:30.279Z,37.66
2022-09-12T14:35:30.318Z,37.56
2022-09-12T14:36:30.301Z,37.46
2022-09-12T14:37:30.303Z,37.44
2022-09-12T14:38:30.299Z,37.36
2022-09-12T14:39:30.298Z,37.39
2022-09-12T14:40:30.286Z,37.23
2022-09-12T14:41:30.289Z,37.26
2022-09-12T14:42:30.293Z,37.30
2022-09-12T14:43:30.315Z,37.22
2022-09-12T14:44:30.302Z,37.17
2022-09-12T14:45:30.291Z,37.07
2022-09-12T14:46:30.310Z,36.96
2022-09-12T14:47:30.362Z,36.81
2022-09-12T14:48:28.489Z,36.75
2022-09-12T14:49:30.318Z,36.75
2022-09-12T14:50:28.509Z,36.61
2022-09-12T14:51:28.521Z,36.56
2022-09-12T14:52:28.523Z,36.40
2022-09-12T14:53:28.530Z,36.33
2022-09-12T14:54:30.364Z,36.21
2022-09-12T14:55:28.548Z,36.06
2022-09-12T14:56:28.556Z,36.04
2022-09-12T14:57:28.565Z,35.89
2022-09-12T14:58:28.570Z,35.72
2022-09-12T14:59:30.346Z,35.71
2022-09-12T15:00:28.585Z,35.53
2022-09-12T15:01:30.361Z,35.53
2022-09-12T15:02:30.314Z,35.42
2022-09-12T15:03:30.345Z,35.42
2022-09-12T15:04:30.349Z,35.26
2022-09-12T15:05:30.350Z,35.23
2022-09-12T15:06:30.323Z,34.94
2022-09-12T15:07:30.323Z,34.86
2022-09-12T15:08:30.352Z,34.75
2022-09-12T15:09:30.327Z,34.64
2022-09-12T15:10:30.327Z,34.54
2022-09-12T15:11:30.344Z,34.48
2022-09-12T15:12:30.328Z,34.32
2022-09-12T15:13:30.326Z,34.24
2022-09-12T15:14:30.345Z,34.15
2022-09-12T15:15:30.375Z,34.02
2022-09-12T15:16:30.343Z,33.84
2022-09-12T15:17:30.333Z,33.81
2022-09-12T15:18:30.338Z,33.63
2022-09-12T15:19:30.335Z,33.53
2022-09-12T15:20:30.338Z,33.46
2022-09-12T15:21:30.351Z,33.24
2022-09-12T15:22:30.337Z,33.12
2022-09-12T15:23:30.339Z,33.08
2022-09-12T15:24:30.353Z,32.99
2022-09-12T15:25:30.340Z,32.89
2022-09-12T15:26:30.357Z,32.79
2022-09-12T15:27:30.346Z,32.69
2022-09-12T15:28:30.356Z,32.56
2022-09-12T15:29:30.374Z,32.42
2022-09-12T15:30:28.762Z,32.28
2022-09-12T15:31:28.919Z,32.17
2022-09-12T15:32:28.765Z,32.16
2022-09-12T15:33:28.766Z,32.08
2022-09-12T15:34:30.372Z,31.94
2022-09-12T15:35:30.366Z,31.88
2022-09-12T15:36:29.865Z,31.72
2022-09-12T15:37:28.840Z,31.68
2022-09-12T15:38:30.372Z,31.62
2022-09-12T15:39:28.802Z,31.58
2022-09-12T15:40:28.798Z,31.38
2022-09-12T15:41:28.802Z,31.33
2022-09-12T15:42:30.373Z,31.26
2022-09-12T15:43:28.806Z,31.19
2022-09-12T15:44:28.829Z,31.21
2022-09-12T15:45:28.815Z,31.12
2022-09-12T15:46:30.410Z,31.00
2022-09-12T15:47:28.849Z,30.89
2022-09-12T15:48:30.367Z,30.84
2022-09-12T15:49:29.827Z,30.85
2022-09-12T15:50:28.831Z,30.77
2022-09-12T15:51:30.381Z,30.73
2022-09-12T15:52:30.392Z,30.60
2022-09-12T15:53:28.839Z,30.59
2022-09-12T15:54:30.390Z,30.54
2022-09-12T15:55:28.850Z,30.39
2022-09-12T15:56:30.392Z,30.35
2022-09-12T15:57:28.857Z,30.34
2022-09-12T15:58:30.395Z,30.29
2022-09-12T15:59:28.871Z,30.18
2022-09-12T16:12:45.646Z,29.33
2022-09-12T16:13:43.931Z,29.33
2022-09-12T16:14:43.925Z,29.14
2022-09-12T16:15:45.542Z,29.20
2022-09-12T16:16:45.556Z,29.06
2022-09-12T16:17:45.535Z,29.13
2022-09-12T16:18:45.548Z,29.01
2022-09-12T16:19:45.539Z,28.91
2022-09-12T16:20:45.524Z,28.92
2022-09-12T16:21:45.523Z,28.97
2022-09-12T16:22:45.523Z,28.82
2022-09-12T16:23:45.525Z,28.79
2022-09-12T16:24:45.547Z,28.68
2022-09-12T16:25:45.526Z,28.67
2022-09-12T16:26:45.537Z,28.63
2022-09-12T16:27:45.545Z,28.64
2022-09-12T16:28:45.604Z,28.57
2022-09-12T16:29:45.534Z,28.57
2022-09-12T16:30:45.551Z,28.42
2022-09-12T16:31:45.554Z,28.46
2022-09-12T16:32:45.547Z,28.36
2022-09-12T16:33:45.548Z,28.33
2022-09-12T16:34:44.948Z,28.31
2022-09-12T16:35:45.541Z,28.30
2022-09-12T16:36:45.574Z,28.24
2022-09-12T16:37:45.540Z,28.21
2022-09-12T16:38:45.672Z,28.16
2022-09-12T16:39:45.562Z,28.12
2022-09-12T16:40:45.542Z,28.03
2022-09-12T16:41:45.555Z,28.08
2022-09-12T16:42:44.001Z,28.01
2022-09-12T16:43:45.578Z,27.98
2022-09-12T16:44:43.993Z,27.94
2022-09-12T16:45:43.974Z,28.01
2022-09-12T16:46:43.998Z,27.94
2022-09-12T16:47:45.566Z,27.89
2022-09-12T16:48:50.915Z,27.83
2022-09-12T16:49:45.549Z,27.69
2022-09-12T16:50:45.558Z,27.75
2022-09-12T16:51:45.552Z,27.74
2022-09-12T16:52:45.555Z,27.68
2022-09-12T16:53:45.574Z,27.57
2022-09-12T16:54:45.564Z,27.57
2022-09-12T16:55:45.559Z,27.65
2022-09-12T16:56:45.578Z,27.59
2022-09-12T16:57:45.557Z,27.59
2022-09-12T16:58:45.567Z,27.51
2022-09-12T16:59:45.576Z,27.49
2022-09-12T17:00:45.587Z,27.46
2022-09-12T17:01:45.623Z,27.45
2022-09-12T17:02:45.614Z,27.46
2022-09-12T17:03:45.571Z,27.37
2022-09-12T17:04:45.565Z,27.33
2022-09-12T17:05:45.568Z,27.30
2022-09-12T17:06:45.593Z,27.33
2022-09-12T17:07:45.567Z,27.26
2022-09-12T17:08:45.664Z,27.16
2022-09-12T17:09:47.941Z,27.23
2022-09-12T17:10:45.576Z,27.15
2022-09-12T17:11:45.587Z,27.21
2022-09-12T17:12:45.573Z,27.11
2022-09-12T17:14:03.975Z,27.11
2022-09-12T17:14:43.994Z,27.09
2022-09-12T17:15:44.046Z,26.99
2022-09-12T17:16:50.760Z,26.96
2022-09-12T17:17:43.986Z,26.86
2022-09-12T17:18:43.989Z,26.94